Thunder radar more information blitzortung!


Löydät sääaseman tiedot myös:

European Weather Network

Finland Weather Exchange

Weather Underground

AWEKAS



Weather Underground säähistoriasivu

Päivittäin yhteenveto Kesäkuu 23, 2017 Yksiköt:  Englantilaiset    Metriset   Molemmat
« Edellinen Päivä
Seuraava Päivä »
Päivittäin Viikoittain Kuukausittain Vuosittain Mukautettu
  Korkea: Matala: Keskiarvo:
Lämpötila: TemperatureC °F 5.5 °F 10.7 °F
Kastepiste: DewpointC °F 4.1 °F 6.2 °F
Kosteus: Humidity % 52 % 74 %
Tuulen nopeus: WindSpeedKMH mph 0.0 mph 0.4 mph
Tuulenpuuska: WindSpeedGustKMH mph - -
Tuuli:- - WNW
Ilmanpaine: PressurehPa in 1004.6 in -
Sade: 0.0 in    
Historical Graphs
 
 
Taulukkotiedot Kesäkuu 23, 2017
Aika Lämpötila Kastepiste Ilmanpaine Tuuli Tuulen nopeus Tuulenpuuska Kosteus Sademäärä (tunneittain)
TemperatureC °F DewpointC °F PressurehPa in Calm     Humidity % HourlyPrecipMM in
00:00 7.1 °F 4.5 °F 1005.3 in NW 1.6 mph 6.4 mph 84 % 0.0 in
00:15 7.2 °F 4.7 °F 1005.3 in WNW 1.6 mph 6.4 mph 84 % 0.0 in
00:30 7.3 °F 4.8 °F 1005.3 in NW 1.6 mph 6.4 mph 84 % 0.0 in
00:45 7.3 °F 4.8 °F 1005.3 in Calm   4.8 mph 84 % 0.0 in
01:00 7.2 °F 4.9 °F 1005.3 in Calm   3.2 mph 85 % 0.0 in
01:15 6.9 °F 4.8 °F 1005.3 in Calm   3.2 mph 86 % 0.0 in
01:30 6.5 °F 4.5 °F 1005.3 in Calm   1.6 mph 87 % 0.0 in
01:45 6.2 °F 4.2 °F 1005.3 in Calm     87 % 0.0 in
02:00 6.2 °F 4.5 °F 1005.3 in Calm   3.2 mph 89 % 0.0 in
02:15 6.1 °F 4.2 °F 1005.6 in Calm   4.8 mph 88 % 0.0 in
02:30 5.8 °F 4.1 °F 1005.6 in Calm   3.2 mph 89 % 0.0 in
02:45 5.7 °F 4.2 °F 1005.6 in Calm   3.2 mph 90 % 0.0 in
03:00 5.9 °F 4.4 °F 1005.6 in Calm   6.4 mph 90 % 0.0 in
03:15 6.1 °F 4.6 °F 1005.6 in Calm   4.8 mph 90 % 0.0 in
03:30 6.2 °F 4.5 °F 1005.6 in Calm   3.2 mph 89 % 0.0 in
03:45 6.2 °F 4.5 °F 1005.6 in Calm     89 % 0.0 in
04:00 5.9 °F 4.3 °F 1006.0 in Calm     89 % 0.0 in
04:15 5.6 °F 4.1 °F 1006.0 in Calm     90 % 0.0 in
04:30 5.5 °F 4.1 °F 1006.0 in Calm     91 % 0.0 in
04:45 5.6 °F 4.4 °F 1006.0 in Calm     92 % 0.0 in
05:00 5.9 °F 4.7 °F 1006.0 in Calm   3.2 mph 92 % 0.0 in
05:15 6.3 °F 4.9 °F 1006.0 in Calm   4.8 mph 91 % 0.0 in
05:30 6.6 °F 5.2 °F 1006.0 in Calm     91 % 0.0 in
05:45 6.8 °F 5.3 °F 1006.3 in Calm   4.8 mph 90 % 0.0 in
06:00 6.9 °F 5.4 °F 1006.3 in NW 1.6 mph 6.4 mph 90 % 0.0 in
06:15 7.1 °F 5.5 °F 1006.3 in Calm   4.8 mph 90 % 0.0 in
06:30 7.2 °F 5.7 °F 1006.0 in Calm   4.8 mph 90 % 0.0 in
06:45 7.7 °F 6.0 °F 1006.3 in Calm   1.6 mph 89 % 0.0 in
07:00 8.1 °F 6.2 °F 1006.0 in Calm   6.4 mph 88 % 0.0 in
07:15 8.5 °F 6.5 °F 1006.0 in Calm   4.8 mph 87 % 0.0 in
07:30 8.8 °F 6.6 °F 1006.0 in Calm   4.8 mph 86 % 0.0 in
07:45 8.8 °F 6.4 °F 1006.3 in Calm   1.6 mph 85 % 0.0 in
08:00 8.9 °F 6.6 °F 1006.3 in Calm   1.6 mph 85 % 0.0 in
08:15 9.1 °F 6.7 °F 1006.3 in Calm     85 % 0.0 in
08:30 9.3 °F 6.8 °F 1006.3 in Calm     84 % 0.0 in
08:45 9.4 °F 6.5 °F 1006.3 in Calm   4.8 mph 82 % 0.0 in
09:00 9.5 °F 6.6 °F 1006.3 in Calm   1.6 mph 82 % 0.0 in
09:15 9.7 °F 6.6 °F 1006.3 in Calm   4.8 mph 81 % 0.0 in
09:30 9.7 °F 6.6 °F 1006.3 in Calm   4.8 mph 81 % 0.0 in
09:45 9.9 °F 6.7 °F 1006.3 in Calm   6.4 mph 80 % 0.0 in
10:00 10.6 °F 7.1 °F 1006.3 in NW 3.2 mph 9.7 mph 79 % 0.0 in
10:15 10.7 °F 6.6 °F 1006.7 in NW 3.2 mph 12.9 mph 76 % 0.0 in
10:30 11.2 °F 7.1 °F 1006.7 in NW 3.2 mph 9.7 mph 76 % 0.0 in
10:45 10.9 °F 7.1 °F 1006.3 in NW 1.6 mph 8.0 mph 77 % 0.0 in
11:00 11.4 °F 6.7 °F 1006.3 in NW 3.2 mph 14.5 mph 73 % 0.0 in
11:15 10.8 °F 6.5 °F 1006.7 in NW 3.2 mph 9.7 mph 75 % 0.0 in
11:30 10.8 °F 6.8 °F 1006.7 in Calm   8.0 mph 76 % 0.0 in
11:45 11.0 °F 6.5 °F 1006.7 in Calm   4.8 mph 74 % 0.0 in
12:00 11.2 °F 7.0 °F 1006.7 in Calm   3.2 mph 75 % 0.0 in
12:15 11.8 °F 6.5 °F 1006.7 in Calm   4.8 mph 70 % 0.0 in
12:30 12.2 °F 6.9 °F 1006.7 in NNW 1.6 mph 4.8 mph 70 % 0.0 in
12:45 12.4 °F 6.6 °F 1006.7 in WNW 1.6 mph 6.4 mph 68 % 0.0 in
13:00 12.0 °F 6.9 °F 1006.7 in Calm   3.2 mph 71 % 0.0 in
13:15 12.8 °F 7.0 °F 1006.7 in Calm   4.8 mph 68 % 0.0 in
13:30 12.7 °F 7.2 °F 1006.3 in Calm   3.2 mph 69 % 0.0 in
13:45 12.8 °F 7.0 °F 1006.3 in Calm   1.6 mph 68 % 0.0 in
14:00 13.7 °F 8.1 °F 1006.3 in Calm   4.8 mph 69 % 0.0 in
14:15 13.7 °F 7.5 °F 1006.3 in NW 1.6 mph 9.7 mph 66 % 0.0 in
14:30 13.8 °F 7.8 °F 1006.3 in Calm   6.4 mph 67 % 0.0 in
14:45 13.8 °F 6.7 °F 1006.3 in Calm   3.2 mph 62 % 0.0 in
15:00 13.9 °F 6.5 °F 1006.3 in NW 1.6 mph 9.7 mph 61 % 0.0 in
15:15 13.9 °F 5.8 °F 1006.0 in West 1.6 mph 8.0 mph 58 % 0.0 in
15:30 14.7 °F 6.5 °F 1006.0 in SW 3.2 mph 9.7 mph 58 % 0.0 in
15:45 14.7 °F 6.5 °F 1006.0 in Calm   1.6 mph 58 % 0.0 in
16:00 15.1 °F 6.6 °F 1006.0 in Calm   1.6 mph 57 % 0.0 in
16:15 14.9 °F 7.0 °F 1006.0 in Calm   6.4 mph 59 % 0.0 in
16:30 15.3 °F 7.1 °F 1006.0 in Calm   1.6 mph 58 % 0.0 in
16:45 15.6 °F 6.9 °F 1005.6 in Calm   4.8 mph 56 % 0.0 in
17:00 15.3 °F 6.1 °F 1005.6 in WSW 1.6 mph 8.0 mph 54 % 0.0 in
17:15 15.6 °F 6.1 °F 1005.6 in West 1.6 mph 6.4 mph 53 % 0.0 in
17:30 15.6 °F 5.8 °F 1005.6 in NW 1.6 mph 8.0 mph 52 % 0.0 in
17:45 15.3 °F 6.8 °F 1005.6 in Calm   4.8 mph 57 % 0.0 in
18:00 16.3 °F 7.2 °F 1005.3 in NW 1.6 mph 4.8 mph 55 % 0.0 in
18:15 16.0 °F 7.5 °F 1005.3 in Calm   3.2 mph 57 % 0.0 in
18:30 15.8 °F 7.1 °F 1005.3 in Calm   1.6 mph 56 % 0.0 in
18:45 15.8 °F 6.3 °F 1005.6 in Calm     53 % 0.0 in
19:00 15.6 °F 6.0 °F 1005.3 in Calm   1.6 mph 53 % 0.0 in
19:15 16.0 °F 6.7 °F 1005.6 in Calm   1.6 mph 54 % 0.0 in
19:30 15.2 °F 6.4 °F 1005.6 in SE 1.6 mph 8.0 mph 56 % 0.0 in
19:45 14.6 °F 7.1 °F 1005.3 in Calm     61 % 0.0 in
20:00 14.1 °F 7.4 °F 1005.3 in Calm     64 % 0.0 in
20:15 14.2 °F 8.2 °F 1005.3 in Calm     67 % 0.0 in
20:30 14.2 °F 8.0 °F 1005.3 in Calm     66 % 0.0 in
20:45 14.7 °F 7.7 °F 1005.0 in Calm     63 % 0.0 in
21:00 14.7 °F 7.2 °F 1005.0 in Calm   6.4 mph 61 % 0.0 in
21:15 14.4 °F 7.9 °F 1005.0 in Calm     65 % 0.0 in
21:30 14.2 °F 7.3 °F 1005.0 in Calm   6.4 mph 63 % 0.0 in
21:45 13.9 °F 7.2 °F 1005.0 in Calm   6.4 mph 64 % 0.0 in
22:00 13.6 °F 7.3 °F 1005.0 in Calm   3.2 mph 66 % 0.0 in
22:15 13.0 °F 7.7 °F 1005.0 in Calm     70 % 0.0 in
22:30 12.3 °F 7.6 °F 1005.3 in Calm     73 % 0.0 in
22:45 11.6 °F 7.5 °F 1005.3 in Calm     76 % 0.0 in
23:00 10.8 °F 7.3 °F 1005.0 in Calm     79 % 0.0 in
23:15 10.2 °F 7.1 °F 1005.0 in Calm     81 % 0.0 in
23:30 9.5 °F 6.8 °F 1005.0 in Calm     83 % 0.0 in
23:45 8.8 °F 6.4 °F 1004.6 in Calm     85 % 0.0 in
Esan sääasema
Terveisin Weather Underground - 2.75 mb

Alkuperäinen skripti  Jim McMurry - jmcmurry@mwt.net Sovitettu myös templatelle  Wim van der Kuil - Leuven-Template.eu

Laitteet joita käytämme:

Sääasema
Davis VP2

Sääasemaohjelma
Cumulus

Sääaseman tietokone
Asus EeePC

Palveluntarjoaja
Suncomet

Davis VP2

Cumulus

Asus EeePC

Suncomet